Terminal Aerodrome Forecast
Issued by NWS

Home | Current Version | Previous Version | Text Only | Print | Product List | Glossary On
Versions: 1 2 3 4 5 6 7 8 9 10 11 12 13 14 15 16
000
FTUS43 KFGF 200520
TAFTVF
TAF
KTVF 200520Z 2006/2106 VRB06KT P6SM VCSH OVC035
     FM200900 23008KT P6SM VCSH BKN025
     FM201100 25008KT P6SM BKN090
     FM201800 25013KT P6SM FEW250
     FM210000 19007KT P6SM FEW250=

USA.gov is the U.S. government's official web portal to all federal, state and local government web resources and services.